sensor_id;sensor_type;location;lat;lon;timestamp;temperature;humidity
8475;DHT22;4274;52.012;8.448;2024-03-29T00:01:57;6.30;99.90
8475;DHT22;4274;52.012;8.448;2024-03-29T00:04:23;6.30;99.90
8475;DHT22;4274;52.012;8.448;2024-03-29T00:06:49;6.30;99.90
8475;DHT22;4274;52.012;8.448;2024-03-29T00:09:14;6.30;99.90
8475;DHT22;4274;52.012;8.448;2024-03-29T00:11:40;6.30;99.90
8475;DHT22;4274;52.012;8.448;2024-03-29T00:14:05;6.30;99.90
8475;DHT22;4274;52.012;8.448;2024-03-29T00:16:31;6.20;99.90
8475;DHT22;4274;52.012;8.448;2024-03-29T00:18:56;6.20;99.90
8475;DHT22;4274;52.012;8.448;2024-03-29T00:21:22;6.20;99.90
8475;DHT22;4274;52.012;8.448;2024-03-29T00:23:47;6.20;99.90
8475;DHT22;4274;52.012;8.448;2024-03-29T00:26:16;6.20;99.90
8475;DHT22;4274;52.012;8.448;2024-03-29T00:28:42;6.10;99.90
8475;DHT22;4274;52.012;8.448;2024-03-29T00:31:08;6.20;99.90
8475;DHT22;4274;52.012;8.448;2024-03-29T00:33:33;6.20;99.90
8475;DHT22;4274;52.012;8.448;2024-03-29T00:35:59;6.20;99.90
8475;DHT22;4274;52.012;8.448;2024-03-29T00:38:24;6.30;99.90
8475;DHT22;4274;52.012;8.448;2024-03-29T00:40:50;6.30;99.90
8475;DHT22;4274;52.012;8.448;2024-03-29T00:43:16;6.30;99.90
8475;DHT22;4274;52.012;8.448;2024-03-29T00:45:42;6.30;99.90
8475;DHT22;4274;52.012;8.448;2024-03-29T00:48:08;6.20;99.90
8475;DHT22;4274;52.012;8.448;2024-03-29T00:50:34;6.30;99.90
8475;DHT22;4274;52.012;8.448;2024-03-29T00:52:59;6.30;99.90
8475;DHT22;4274;52.012;8.448;2024-03-29T00:55:25;6.30;99.90
8475;DHT22;4274;52.012;8.448;2024-03-29T00:57:51;6.30;99.90
8475;DHT22;4274;52.012;8.448;2024-03-29T01:00:16;6.40;99.90
8475;DHT22;4274;52.012;8.448;2024-03-29T01:02:42;6.40;99.90
8475;DHT22;4274;52.012;8.448;2024-03-29T01:05:08;6.40;99.90
8475;DHT22;4274;52.012;8.448;2024-03-29T01:07:34;6.40;99.90
8475;DHT22;4274;52.012;8.448;2024-03-29T01:09:59;6.40;99.90
8475;DHT22;4274;52.012;8.448;2024-03-29T01:12:25;6.40;99.90
8475;DHT22;4274;52.012;8.448;2024-03-29T01:14:51;6.40;99.90
8475;DHT22;4274;52.012;8.448;2024-03-29T01:17:17;6.30;99.90
8475;DHT22;4274;52.012;8.448;2024-03-29T01:19:42;6.30;99.90
8475;DHT22;4274;52.012;8.448;2024-03-29T01:22:08;6.30;99.90
8475;DHT22;4274;52.012;8.448;2024-03-29T01:24:33;6.20;99.90
8475;DHT22;4274;52.012;8.448;2024-03-29T01:26:59;6.20;99.90
8475;DHT22;4274;52.012;8.448;2024-03-29T01:29:25;6.20;99.90
8475;DHT22;4274;52.012;8.448;2024-03-29T01:31:50;6.10;99.90
8475;DHT22;4274;52.012;8.448;2024-03-29T01:34:16;6.10;99.90
8475;DHT22;4274;52.012;8.448;2024-03-29T01:36:42;6.10;99.90
8475;DHT22;4274;52.012;8.448;2024-03-29T01:39:08;6.10;99.90
8475;DHT22;4274;52.012;8.448;2024-03-29T01:41:35;6.20;99.90
8475;DHT22;4274;52.012;8.448;2024-03-29T01:44:01;6.20;99.90
8475;DHT22;4274;52.012;8.448;2024-03-29T01:46:26;6.20;99.90
8475;DHT22;4274;52.012;8.448;2024-03-29T01:48:53;6.20;99.90
8475;DHT22;4274;52.012;8.448;2024-03-29T01:51:21;6.20;99.90
8475;DHT22;4274;52.012;8.448;2024-03-29T01:53:51;6.20;99.90
8475;DHT22;4274;52.012;8.448;2024-03-29T01:56:20;6.20;99.90
8475;DHT22;4274;52.012;8.448;2024-03-29T01:58:46;6.20;99.90
8475;DHT22;4274;52.012;8.448;2024-03-29T02:01:13;6.20;99.90
8475;DHT22;4274;52.012;8.448;2024-03-29T02:03:39;6.20;99.90
8475;DHT22;4274;52.012;8.448;2024-03-29T02:06:06;6.30;99.90
8475;DHT22;4274;52.012;8.448;2024-03-29T02:08:33;6.30;99.90
8475;DHT22;4274;52.012;8.448;2024-03-29T02:10:59;6.30;99.90
8475;DHT22;4274;52.012;8.448;2024-03-29T02:13:25;6.30;99.90
8475;DHT22;4274;52.012;8.448;2024-03-29T02:15:50;6.30;99.90
8475;DHT22;4274;52.012;8.448;2024-03-29T02:18:16;6.40;99.90
8475;DHT22;4274;52.012;8.448;2024-03-29T02:20:41;6.40;99.90
8475;DHT22;4274;52.012;8.448;2024-03-29T02:23:10;6.50;99.90
8475;DHT22;4274;52.012;8.448;2024-03-29T02:25:36;6.50;99.90
8475;DHT22;4274;52.012;8.448;2024-03-29T02:28:03;6.50;99.90
8475;DHT22;4274;52.012;8.448;2024-03-29T02:30:29;6.60;99.90
8475;DHT22;4274;52.012;8.448;2024-03-29T02:32:58;6.60;99.90
8475;DHT22;4274;52.012;8.448;2024-03-29T02:35:24;6.70;99.90
8475;DHT22;4274;52.012;8.448;2024-03-29T02:37:50;6.70;99.90
8475;DHT22;4274;52.012;8.448;2024-03-29T02:40:16;6.80;99.90
8475;DHT22;4274;52.012;8.448;2024-03-29T02:42:41;6.80;99.90
8475;DHT22;4274;52.012;8.448;2024-03-29T02:45:08;6.90;99.90
8475;DHT22;4274;52.012;8.448;2024-03-29T02:47:33;6.90;99.90
8475;DHT22;4274;52.012;8.448;2024-03-29T02:49:59;7.00;99.90
8475;DHT22;4274;52.012;8.448;2024-03-29T02:52:25;7.00;99.90
8475;DHT22;4274;52.012;8.448;2024-03-29T02:54:50;7.00;99.90
8475;DHT22;4274;52.012;8.448;2024-03-29T02:57:16;7.00;99.90
8475;DHT22;4274;52.012;8.448;2024-03-29T02:59:42;7.10;99.90
8475;DHT22;4274;52.012;8.448;2024-03-29T03:02:08;7.10;99.90
8475;DHT22;4274;52.012;8.448;2024-03-29T03:04:34;7.20;99.90
8475;DHT22;4274;52.012;8.448;2024-03-29T03:06:59;7.20;99.90
8475;DHT22;4274;52.012;8.448;2024-03-29T03:09:43;7.20;99.90
8475;DHT22;4274;52.012;8.448;2024-03-29T03:12:29;7.20;99.90
8475;DHT22;4274;52.012;8.448;2024-03-29T03:14:55;7.20;99.90
8475;DHT22;4274;52.012;8.448;2024-03-29T03:17:20;7.20;99.90
8475;DHT22;4274;52.012;8.448;2024-03-29T03:19:46;7.30;99.90
8475;DHT22;4274;52.012;8.448;2024-03-29T03:22:12;7.30;99.90
8475;DHT22;4274;52.012;8.448;2024-03-29T03:24:38;7.40;99.90
8475;DHT22;4274;52.012;8.448;2024-03-29T03:27:03;7.40;99.90
8475;DHT22;4274;52.012;8.448;2024-03-29T03:29:29;7.40;99.90
8475;DHT22;4274;52.012;8.448;2024-03-29T03:31:54;7.40;99.90
8475;DHT22;4274;52.012;8.448;2024-03-29T03:34:20;7.40;99.90
8475;DHT22;4274;52.012;8.448;2024-03-29T03:36:45;7.40;99.90
8475;DHT22;4274;52.012;8.448;2024-03-29T03:39:11;7.40;99.90
8475;DHT22;4274;52.012;8.448;2024-03-29T03:41:36;7.40;99.90
8475;DHT22;4274;52.012;8.448;2024-03-29T03:44:02;7.40;99.90
8475;DHT22;4274;52.012;8.448;2024-03-29T03:46:28;7.40;99.90
8475;DHT22;4274;52.012;8.448;2024-03-29T03:48:53;7.30;99.90
8475;DHT22;4274;52.012;8.448;2024-03-29T03:51:19;7.40;99.90
8475;DHT22;4274;52.012;8.448;2024-03-29T03:53:44;7.40;99.90
8475;DHT22;4274;52.012;8.448;2024-03-29T03:56:10;7.40;99.90
8475;DHT22;4274;52.012;8.448;2024-03-29T03:58:35;7.40;99.90
8475;DHT22;4274;52.012;8.448;2024-03-29T04:01:05;7.40;99.90
8475;DHT22;4274;52.012;8.448;2024-03-29T04:03:30;7.40;99.90
8475;DHT22;4274;52.012;8.448;2024-03-29T04:05:56;7.40;99.90
8475;DHT22;4274;52.012;8.448;2024-03-29T04:08:22;7.40;99.90
8475;DHT22;4274;52.012;8.448;2024-03-29T04:10:48;7.50;99.90
8475;DHT22;4274;52.012;8.448;2024-03-29T04:13:13;7.50;99.90
8475;DHT22;4274;52.012;8.448;2024-03-29T04:15:39;7.50;99.90
8475;DHT22;4274;52.012;8.448;2024-03-29T04:18:04;7.50;99.90
8475;DHT22;4274;52.012;8.448;2024-03-29T04:20:30;7.60;99.90
8475;DHT22;4274;52.012;8.448;2024-03-29T04:22:56;7.60;99.90
8475;DHT22;4274;52.012;8.448;2024-03-29T04:25:22;7.60;99.90
8475;DHT22;4274;52.012;8.448;2024-03-29T04:27:47;7.60;99.90
8475;DHT22;4274;52.012;8.448;2024-03-29T04:30:13;7.60;99.90
8475;DHT22;4274;52.012;8.448;2024-03-29T04:32:38;7.60;99.90
8475;DHT22;4274;52.012;8.448;2024-03-29T04:35:04;7.50;99.90
8475;DHT22;4274;52.012;8.448;2024-03-29T04:37:30;7.40;99.90
8475;DHT22;4274;52.012;8.448;2024-03-29T04:39:55;7.40;99.90
8475;DHT22;4274;52.012;8.448;2024-03-29T04:42:21;7.40;99.90
8475;DHT22;4274;52.012;8.448;2024-03-29T04:44:46;7.30;99.90
8475;DHT22;4274;52.012;8.448;2024-03-29T04:47:12;7.30;99.90
8475;DHT22;4274;52.012;8.448;2024-03-29T04:49:37;7.20;99.90
8475;DHT22;4274;52.012;8.448;2024-03-29T04:52:07;7.20;99.90
8475;DHT22;4274;52.012;8.448;2024-03-29T04:54:33;7.10;99.90
8475;DHT22;4274;52.012;8.448;2024-03-29T04:57:00;7.10;99.90
8475;DHT22;4274;52.012;8.448;2024-03-29T04:59:31;7.00;99.90
8475;DHT22;4274;52.012;8.448;2024-03-29T05:01:59;7.00;99.90
8475;DHT22;4274;52.012;8.448;2024-03-29T05:04:25;6.90;99.90
8475;DHT22;4274;52.012;8.448;2024-03-29T05:06:57;6.80;99.90
8475;DHT22;4274;52.012;8.448;2024-03-29T05:09:24;6.80;99.90
8475;DHT22;4274;52.012;8.448;2024-03-29T05:11:50;6.80;99.90
8475;DHT22;4274;52.012;8.448;2024-03-29T05:14:16;6.70;99.90
8475;DHT22;4274;52.012;8.448;2024-03-29T05:16:48;6.70;99.90
8475;DHT22;4274;52.012;8.448;2024-03-29T05:19:15;6.70;99.90
8475;DHT22;4274;52.012;8.448;2024-03-29T05:21:41;6.70;99.90
8475;DHT22;4274;52.012;8.448;2024-03-29T05:24:07;6.70;99.90
8475;DHT22;4274;52.012;8.448;2024-03-29T05:26:33;6.60;99.90
8475;DHT22;4274;52.012;8.448;2024-03-29T05:28:59;6.60;99.90
8475;DHT22;4274;52.012;8.448;2024-03-29T05:31:25;6.60;99.90
8475;DHT22;4274;52.012;8.448;2024-03-29T05:33:52;6.60;99.90
8475;DHT22;4274;52.012;8.448;2024-03-29T05:36:17;6.60;99.90
8475;DHT22;4274;52.012;8.448;2024-03-29T05:38:44;6.60;99.90
8475;DHT22;4274;52.012;8.448;2024-03-29T05:41:10;6.60;99.90
8475;DHT22;4274;52.012;8.448;2024-03-29T05:43:36;6.50;99.90
8475;DHT22;4274;52.012;8.448;2024-03-29T05:46:02;6.50;99.90
8475;DHT22;4274;52.012;8.448;2024-03-29T05:48:28;6.60;99.90
8475;DHT22;4274;52.012;8.448;2024-03-29T05:50:54;6.50;99.90
8475;DHT22;4274;52.012;8.448;2024-03-29T05:53:20;6.50;99.90
8475;DHT22;4274;52.012;8.448;2024-03-29T05:55:45;6.50;99.90
8475;DHT22;4274;52.012;8.448;2024-03-29T05:58:11;6.60;99.90
8475;DHT22;4274;52.012;8.448;2024-03-29T06:00:36;6.60;99.90
8475;DHT22;4274;52.012;8.448;2024-03-29T06:03:02;6.60;99.90
8475;DHT22;4274;52.012;8.448;2024-03-29T06:05:28;6.60;99.90
8475;DHT22;4274;52.012;8.448;2024-03-29T06:07:54;6.70;99.90
8475;DHT22;4274;52.012;8.448;2024-03-29T06:10:20;6.60;99.90
8475;DHT22;4274;52.012;8.448;2024-03-29T06:12:45;6.60;99.90
8475;DHT22;4274;52.012;8.448;2024-03-29T06:15:11;6.60;99.90
8475;DHT22;4274;52.012;8.448;2024-03-29T06:17:55;6.60;99.90
8475;DHT22;4274;52.012;8.448;2024-03-29T06:20:20;6.60;99.90
8475;DHT22;4274;52.012;8.448;2024-03-29T06:22:46;6.60;99.90
8475;DHT22;4274;52.012;8.448;2024-03-29T06:25:12;6.60;99.90
8475;DHT22;4274;52.012;8.448;2024-03-29T06:27:38;6.60;99.90
8475;DHT22;4274;52.012;8.448;2024-03-29T06:30:04;6.60;99.90
8475;DHT22;4274;52.012;8.448;2024-03-29T06:32:31;6.60;99.90
8475;DHT22;4274;52.012;8.448;2024-03-29T06:34:57;6.60;99.90
8475;DHT22;4274;52.012;8.448;2024-03-29T06:37:23;6.60;99.90
8475;DHT22;4274;52.012;8.448;2024-03-29T06:39:50;6.60;99.90
8475;DHT22;4274;52.012;8.448;2024-03-29T06:42:16;6.60;99.90
8475;DHT22;4274;52.012;8.448;2024-03-29T06:44:42;6.50;99.90
8475;DHT22;4274;52.012;8.448;2024-03-29T06:47:08;6.50;99.90
8475;DHT22;4274;52.012;8.448;2024-03-29T06:49:33;6.60;99.90
8475;DHT22;4274;52.012;8.448;2024-03-29T06:51:59;6.60;99.90
8475;DHT22;4274;52.012;8.448;2024-03-29T06:54:27;6.50;99.90
8475;DHT22;4274;52.012;8.448;2024-03-29T06:56:53;6.60;99.90
8475;DHT22;4274;52.012;8.448;2024-03-29T06:59:19;6.60;99.90
8475;DHT22;4274;52.012;8.448;2024-03-29T07:01:45;6.50;99.90
8475;DHT22;4274;52.012;8.448;2024-03-29T07:04:13;6.60;99.90
8475;DHT22;4274;52.012;8.448;2024-03-29T07:06:39;6.60;99.90
8475;DHT22;4274;52.012;8.448;2024-03-29T07:09:07;6.70;99.90
8475;DHT22;4274;52.012;8.448;2024-03-29T07:11:32;6.70;99.90
8475;DHT22;4274;52.012;8.448;2024-03-29T07:13:58;6.70;99.90
8475;DHT22;4274;52.012;8.448;2024-03-29T07:16:23;6.80;99.90
8475;DHT22;4274;52.012;8.448;2024-03-29T07:18:49;6.80;99.90
8475;DHT22;4274;52.012;8.448;2024-03-29T07:21:15;6.90;99.90
8475;DHT22;4274;52.012;8.448;2024-03-29T07:23:40;6.80;99.90
8475;DHT22;4274;52.012;8.448;2024-03-29T07:26:06;6.80;99.90
8475;DHT22;4274;52.012;8.448;2024-03-29T07:28:32;6.80;99.90
8475;DHT22;4274;52.012;8.448;2024-03-29T07:30:58;6.90;99.90
8475;DHT22;4274;52.012;8.448;2024-03-29T07:33:31;6.90;99.90
8475;DHT22;4274;52.012;8.448;2024-03-29T07:35:57;6.90;99.90
8475;DHT22;4274;52.012;8.448;2024-03-29T07:38:23;7.00;99.90
8475;DHT22;4274;52.012;8.448;2024-03-29T07:40:49;7.00;99.90
8475;DHT22;4274;52.012;8.448;2024-03-29T07:43:15;7.10;99.90
8475;DHT22;4274;52.012;8.448;2024-03-29T07:45:41;7.20;99.90
8475;DHT22;4274;52.012;8.448;2024-03-29T07:48:12;7.30;99.90
8475;DHT22;4274;52.012;8.448;2024-03-29T07:50:39;7.40;99.90
8475;DHT22;4274;52.012;8.448;2024-03-29T07:53:04;7.50;99.90
8475;DHT22;4274;52.012;8.448;2024-03-29T07:55:30;7.60;99.90
8475;DHT22;4274;52.012;8.448;2024-03-29T07:57:55;7.60;99.90
8475;DHT22;4274;52.012;8.448;2024-03-29T08:00:21;7.70;99.90
8475;DHT22;4274;52.012;8.448;2024-03-29T08:02:47;7.70;99.90
8475;DHT22;4274;52.012;8.448;2024-03-29T08:05:13;7.80;99.90
8475;DHT22;4274;52.012;8.448;2024-03-29T08:07:39;7.80;99.90
8475;DHT22;4274;52.012;8.448;2024-03-29T08:10:05;7.80;99.90
8475;DHT22;4274;52.012;8.448;2024-03-29T08:12:32;7.80;99.90
8475;DHT22;4274;52.012;8.448;2024-03-29T08:14:58;7.80;99.90
8475;DHT22;4274;52.012;8.448;2024-03-29T08:17:24;7.80;99.90
8475;DHT22;4274;52.012;8.448;2024-03-29T08:19:50;7.80;99.90
8475;DHT22;4274;52.012;8.448;2024-03-29T08:22:16;7.80;99.90
8475;DHT22;4274;52.012;8.448;2024-03-29T08:24:41;7.80;99.90
8475;DHT22;4274;52.012;8.448;2024-03-29T08:27:07;7.80;99.90
8475;DHT22;4274;52.012;8.448;2024-03-29T08:29:32;7.90;99.90
8475;DHT22;4274;52.012;8.448;2024-03-29T08:31:58;7.90;99.90
8475;DHT22;4274;52.012;8.448;2024-03-29T08:34:24;7.90;99.90
8475;DHT22;4274;52.012;8.448;2024-03-29T08:36:49;7.90;99.90
8475;DHT22;4274;52.012;8.448;2024-03-29T08:39:15;7.90;99.90
8475;DHT22;4274;52.012;8.448;2024-03-29T08:41:42;7.90;99.90
8475;DHT22;4274;52.012;8.448;2024-03-29T08:44:09;7.90;99.90
8475;DHT22;4274;52.012;8.448;2024-03-29T08:46:35;7.90;99.90
8475;DHT22;4274;52.012;8.448;2024-03-29T08:49:01;7.90;99.90
8475;DHT22;4274;52.012;8.448;2024-03-29T08:51:26;7.90;99.90
8475;DHT22;4274;52.012;8.448;2024-03-29T08:53:52;7.90;99.90
8475;DHT22;4274;52.012;8.448;2024-03-29T08:56:17;7.90;99.90
8475;DHT22;4274;52.012;8.448;2024-03-29T08:58:43;8.00;99.90
8475;DHT22;4274;52.012;8.448;2024-03-29T09:01:08;8.00;99.90
8475;DHT22;4274;52.012;8.448;2024-03-29T09:03:34;8.00;99.90
8475;DHT22;4274;52.012;8.448;2024-03-29T09:05:59;8.10;99.90
8475;DHT22;4274;52.012;8.448;2024-03-29T09:08:25;8.10;99.90
8475;DHT22;4274;52.012;8.448;2024-03-29T09:10:50;8.20;99.90
8475;DHT22;4274;52.012;8.448;2024-03-29T09:13:16;8.30;99.90
8475;DHT22;4274;52.012;8.448;2024-03-29T09:15:42;8.40;99.90
8475;DHT22;4274;52.012;8.448;2024-03-29T09:18:08;8.50;99.90
8475;DHT22;4274;52.012;8.448;2024-03-29T09:20:43;8.60;99.90
8475;DHT22;4274;52.012;8.448;2024-03-29T09:23:09;8.60;99.90
8475;DHT22;4274;52.012;8.448;2024-03-29T09:25:39;8.60;99.90
8475;DHT22;4274;52.012;8.448;2024-03-29T09:28:04;8.70;99.90
8475;DHT22;4274;52.012;8.448;2024-03-29T09:30:30;8.80;99.90
8475;DHT22;4274;52.012;8.448;2024-03-29T09:32:56;8.90;99.90
8475;DHT22;4274;52.012;8.448;2024-03-29T09:35:22;9.00;99.90
8475;DHT22;4274;52.012;8.448;2024-03-29T09:37:47;9.20;99.90
8475;DHT22;4274;52.012;8.448;2024-03-29T09:40:13;9.30;99.90
8475;DHT22;4274;52.012;8.448;2024-03-29T09:42:39;9.40;99.90
8475;DHT22;4274;52.012;8.448;2024-03-29T09:45:05;9.60;99.90
8475;DHT22;4274;52.012;8.448;2024-03-29T09:47:31;9.60;99.90
8475;DHT22;4274;52.012;8.448;2024-03-29T09:50:02;9.70;99.90
8475;DHT22;4274;52.012;8.448;2024-03-29T09:52:30;9.70;99.90
8475;DHT22;4274;52.012;8.448;2024-03-29T09:54:57;9.80;99.90
8475;DHT22;4274;52.012;8.448;2024-03-29T09:57:23;9.90;99.90
8475;DHT22;4274;52.012;8.448;2024-03-29T09:59:49;10.00;99.90
8475;DHT22;4274;52.012;8.448;2024-03-29T10:02:16;10.10;99.90
8475;DHT22;4274;52.012;8.448;2024-03-29T10:04:43;10.20;99.90
8475;DHT22;4274;52.012;8.448;2024-03-29T10:07:10;10.40;99.90
8475;DHT22;4274;52.012;8.448;2024-03-29T10:09:37;10.60;99.90
8475;DHT22;4274;52.012;8.448;2024-03-29T10:12:04;10.80;99.90
8475;DHT22;4274;52.012;8.448;2024-03-29T10:14:30;10.80;99.90
8475;DHT22;4274;52.012;8.448;2024-03-29T10:16:58;10.90;99.90
8475;DHT22;4274;52.012;8.448;2024-03-29T10:19:23;10.90;99.90
8475;DHT22;4274;52.012;8.448;2024-03-29T10:21:49;10.90;99.90
8475;DHT22;4274;52.012;8.448;2024-03-29T10:24:16;11.00;99.90
8475;DHT22;4274;52.012;8.448;2024-03-29T10:26:46;11.00;99.90
8475;DHT22;4274;52.012;8.448;2024-03-29T10:29:13;11.10;99.90
8475;DHT22;4274;52.012;8.448;2024-03-29T10:31:38;11.10;99.90
8475;DHT22;4274;52.012;8.448;2024-03-29T10:34:04;11.10;99.90
8475;DHT22;4274;52.012;8.448;2024-03-29T10:36:34;11.20;99.90
8475;DHT22;4274;52.012;8.448;2024-03-29T10:39:09;11.30;99.90
8475;DHT22;4274;52.012;8.448;2024-03-29T10:41:41;11.40;99.90
8475;DHT22;4274;52.012;8.448;2024-03-29T10:44:11;11.50;99.90
8475;DHT22;4274;52.012;8.448;2024-03-29T10:46:38;11.60;99.90
8475;DHT22;4274;52.012;8.448;2024-03-29T10:49:07;11.70;99.90
8475;DHT22;4274;52.012;8.448;2024-03-29T10:51:40;11.70;99.90
8475;DHT22;4274;52.012;8.448;2024-03-29T10:54:09;11.70;99.90
8475;DHT22;4274;52.012;8.448;2024-03-29T10:56:40;11.70;99.90
8475;DHT22;4274;52.012;8.448;2024-03-29T10:59:21;11.60;99.90
8475;DHT22;4274;52.012;8.448;2024-03-29T11:02:00;11.50;99.90
8475;DHT22;4274;52.012;8.448;2024-03-29T11:04:33;11.50;99.90
8475;DHT22;4274;52.012;8.448;2024-03-29T11:07:07;11.40;99.90
8475;DHT22;4274;52.012;8.448;2024-03-29T11:09:36;11.30;99.90
8475;DHT22;4274;52.012;8.448;2024-03-29T11:12:05;11.30;99.90
8475;DHT22;4274;52.012;8.448;2024-03-29T11:14:40;11.30;99.90
8475;DHT22;4274;52.012;8.448;2024-03-29T11:17:07;11.40;99.90
8475;DHT22;4274;52.012;8.448;2024-03-29T11:19:33;11.50;99.90
8475;DHT22;4274;52.012;8.448;2024-03-29T11:21:59;11.60;99.90
8475;DHT22;4274;52.012;8.448;2024-03-29T11:24:26;11.70;99.90
8475;DHT22;4274;52.012;8.448;2024-03-29T11:26:53;11.80;99.90
8475;DHT22;4274;52.012;8.448;2024-03-29T11:29:20;11.90;99.90
8475;DHT22;4274;52.012;8.448;2024-03-29T11:31:46;12.10;99.90
8475;DHT22;4274;52.012;8.448;2024-03-29T11:34:14;12.20;99.90
8475;DHT22;4274;52.012;8.448;2024-03-29T11:36:45;12.30;99.90
8475;DHT22;4274;52.012;8.448;2024-03-29T11:39:20;12.50;99.90
8475;DHT22;4274;52.012;8.448;2024-03-29T11:41:47;12.60;99.90
8475;DHT22;4274;52.012;8.448;2024-03-29T11:44:13;12.60;99.90
8475;DHT22;4274;52.012;8.448;2024-03-29T11:46:40;12.60;99.90
8475;DHT22;4274;52.012;8.448;2024-03-29T11:49:06;12.60;99.90
8475;DHT22;4274;52.012;8.448;2024-03-29T11:51:31;12.60;99.90
8475;DHT22;4274;52.012;8.448;2024-03-29T11:53:57;12.50;99.90
8475;DHT22;4274;52.012;8.448;2024-03-29T11:56:23;12.50;99.90
8475;DHT22;4274;52.012;8.448;2024-03-29T11:58:48;12.70;99.90
8475;DHT22;4274;52.012;8.448;2024-03-29T12:01:15;12.90;99.90
8475;DHT22;4274;52.012;8.448;2024-03-29T12:03:42;13.10;99.90
8475;DHT22;4274;52.012;8.448;2024-03-29T12:06:09;13.30;99.90
8475;DHT22;4274;52.012;8.448;2024-03-29T12:08:39;13.20;99.90
8475;DHT22;4274;52.012;8.448;2024-03-29T12:11:05;13.20;99.90
8475;DHT22;4274;52.012;8.448;2024-03-29T12:13:31;13.20;99.90
8475;DHT22;4274;52.012;8.448;2024-03-29T12:15:58;13.10;99.90
8475;DHT22;4274;52.012;8.448;2024-03-29T12:18:25;13.00;99.90
8475;DHT22;4274;52.012;8.448;2024-03-29T12:20:51;12.90;99.90
8475;DHT22;4274;52.012;8.448;2024-03-29T12:23:18;12.80;99.90
8475;DHT22;4274;52.012;8.448;2024-03-29T12:25:45;12.80;99.90
8475;DHT22;4274;52.012;8.448;2024-03-29T12:28:12;12.80;99.90
8475;DHT22;4274;52.012;8.448;2024-03-29T12:30:41;13.00;99.90
8475;DHT22;4274;52.012;8.448;2024-03-29T12:33:09;13.20;99.90
8475;DHT22;4274;52.012;8.448;2024-03-29T12:35:36;13.40;99.90
8475;DHT22;4274;52.012;8.448;2024-03-29T12:38:03;13.50;99.90
8475;DHT22;4274;52.012;8.448;2024-03-29T12:40:31;13.60;99.90
8475;DHT22;4274;52.012;8.448;2024-03-29T12:43:06;13.60;99.90
8475;DHT22;4274;52.012;8.448;2024-03-29T12:45:32;13.60;99.90
8475;DHT22;4274;52.012;8.448;2024-03-29T12:47:58;13.50;99.90
8475;DHT22;4274;52.012;8.448;2024-03-29T12:50:32;13.40;99.90
8475;DHT22;4274;52.012;8.448;2024-03-29T12:53:00;13.30;99.90
8475;DHT22;4274;52.012;8.448;2024-03-29T12:55:28;13.30;99.90
8475;DHT22;4274;52.012;8.448;2024-03-29T12:58:00;13.30;99.90
8475;DHT22;4274;52.012;8.448;2024-03-29T13:00:27;13.20;99.90
8475;DHT22;4274;52.012;8.448;2024-03-29T13:02:53;13.20;99.90
8475;DHT22;4274;52.012;8.448;2024-03-29T13:05:18;13.30;99.90
8475;DHT22;4274;52.012;8.448;2024-03-29T13:07:44;13.40;99.90
8475;DHT22;4274;52.012;8.448;2024-03-29T13:10:10;13.90;99.90
8475;DHT22;4274;52.012;8.448;2024-03-29T13:12:40;14.80;99.90
8475;DHT22;4274;52.012;8.448;2024-03-29T13:15:16;15.50;99.90
8475;DHT22;4274;52.012;8.448;2024-03-29T13:17:41;15.80;99.90
8475;DHT22;4274;52.012;8.448;2024-03-29T13:20:07;16.10;99.90
8475;DHT22;4274;52.012;8.448;2024-03-29T13:22:35;16.10;99.90
8475;DHT22;4274;52.012;8.448;2024-03-29T13:25:00;15.90;99.90
8475;DHT22;4274;52.012;8.448;2024-03-29T13:27:26;15.90;99.90
8475;DHT22;4274;52.012;8.448;2024-03-29T13:29:52;16.00;99.90
8475;DHT22;4274;52.012;8.448;2024-03-29T13:32:18;16.10;99.90
8475;DHT22;4274;52.012;8.448;2024-03-29T13:34:43;15.80;99.90
8475;DHT22;4274;52.012;8.448;2024-03-29T13:37:09;15.50;99.90
8475;DHT22;4274;52.012;8.448;2024-03-29T13:39:35;15.40;99.90
8475;DHT22;4274;52.012;8.448;2024-03-29T13:42:00;15.30;99.90
8475;DHT22;4274;52.012;8.448;2024-03-29T13:44:26;15.30;99.90
8475;DHT22;4274;52.012;8.448;2024-03-29T13:46:51;15.30;99.90
8475;DHT22;4274;52.012;8.448;2024-03-29T13:49:17;15.30;99.90
8475;DHT22;4274;52.012;8.448;2024-03-29T13:51:46;15.30;99.90
8475;DHT22;4274;52.012;8.448;2024-03-29T13:54:12;15.30;99.90
8475;DHT22;4274;52.012;8.448;2024-03-29T13:56:38;15.30;99.90
8475;DHT22;4274;52.012;8.448;2024-03-29T13:59:04;15.20;99.90
8475;DHT22;4274;52.012;8.448;2024-03-29T14:01:30;15.30;99.90
8475;DHT22;4274;52.012;8.448;2024-03-29T14:03:55;15.40;99.90
8475;DHT22;4274;52.012;8.448;2024-03-29T14:06:21;15.40;99.90
8475;DHT22;4274;52.012;8.448;2024-03-29T14:08:47;15.30;99.90
8475;DHT22;4274;52.012;8.448;2024-03-29T14:11:13;15.30;99.90
8475;DHT22;4274;52.012;8.448;2024-03-29T14:13:40;15.20;99.90
8475;DHT22;4274;52.012;8.448;2024-03-29T14:16:05;15.10;99.90
8475;DHT22;4274;52.012;8.448;2024-03-29T14:18:31;15.20;99.90
8475;DHT22;4274;52.012;8.448;2024-03-29T14:20:57;15.10;99.90
8475;DHT22;4274;52.012;8.448;2024-03-29T14:23:23;15.20;99.90
8475;DHT22;4274;52.012;8.448;2024-03-29T14:25:51;15.30;99.90
8475;DHT22;4274;52.012;8.448;2024-03-29T14:28:16;15.40;99.90
8475;DHT22;4274;52.012;8.448;2024-03-29T14:30:42;15.30;99.90
8475;DHT22;4274;52.012;8.448;2024-03-29T14:33:07;15.20;99.90
8475;DHT22;4274;52.012;8.448;2024-03-29T14:35:34;15.20;99.90
8475;DHT22;4274;52.012;8.448;2024-03-29T14:38:00;15.20;99.90
8475;DHT22;4274;52.012;8.448;2024-03-29T14:40:26;15.30;99.90
8475;DHT22;4274;52.012;8.448;2024-03-29T14:42:54;15.40;99.90
8475;DHT22;4274;52.012;8.448;2024-03-29T14:45:21;15.60;99.90
8475;DHT22;4274;52.012;8.448;2024-03-29T14:47:47;15.80;99.90
8475;DHT22;4274;52.012;8.448;2024-03-29T14:50:12;16.00;99.90
8475;DHT22;4274;52.012;8.448;2024-03-29T14:52:38;16.00;99.90
8475;DHT22;4274;52.012;8.448;2024-03-29T14:55:04;15.90;99.90
8475;DHT22;4274;52.012;8.448;2024-03-29T14:57:30;15.70;99.90
8475;DHT22;4274;52.012;8.448;2024-03-29T14:59:57;15.50;99.90
8475;DHT22;4274;52.012;8.448;2024-03-29T15:02:22;15.30;99.90
8475;DHT22;4274;52.012;8.448;2024-03-29T15:04:48;15.20;99.90
8475;DHT22;4274;52.012;8.448;2024-03-29T15:07:13;15.00;99.90
8475;DHT22;4274;52.012;8.448;2024-03-29T15:09:39;14.90;99.90
8475;DHT22;4274;52.012;8.448;2024-03-29T15:12:05;14.80;99.90
8475;DHT22;4274;52.012;8.448;2024-03-29T15:14:31;14.70;99.90
8475;DHT22;4274;52.012;8.448;2024-03-29T15:16:56;14.50;99.90
8475;DHT22;4274;52.012;8.448;2024-03-29T15:19:22;14.40;99.90
8475;DHT22;4274;52.012;8.448;2024-03-29T15:21:48;14.20;99.90
8475;DHT22;4274;52.012;8.448;2024-03-29T15:24:17;14.10;99.90
8475;DHT22;4274;52.012;8.448;2024-03-29T15:26:43;13.90;99.90
8475;DHT22;4274;52.012;8.448;2024-03-29T15:29:08;13.90;99.90
8475;DHT22;4274;52.012;8.448;2024-03-29T15:31:39;13.80;99.90
8475;DHT22;4274;52.012;8.448;2024-03-29T15:34:07;13.70;99.90
8475;DHT22;4274;52.012;8.448;2024-03-29T15:36:33;13.70;99.90
8475;DHT22;4274;52.012;8.448;2024-03-29T15:39:00;13.70;99.90
8475;DHT22;4274;52.012;8.448;2024-03-29T15:41:38;13.80;99.90
8475;DHT22;4274;52.012;8.448;2024-03-29T15:44:09;14.00;99.90
8475;DHT22;4274;52.012;8.448;2024-03-29T15:46:35;14.00;99.90
8475;DHT22;4274;52.012;8.448;2024-03-29T15:49:01;14.00;99.90
8475;DHT22;4274;52.012;8.448;2024-03-29T15:51:27;14.00;99.90
8475;DHT22;4274;52.012;8.448;2024-03-29T15:53:53;13.90;99.90
8475;DHT22;4274;52.012;8.448;2024-03-29T15:56:22;13.90;99.90
8475;DHT22;4274;52.012;8.448;2024-03-29T15:58:48;13.90;99.90
8475;DHT22;4274;52.012;8.448;2024-03-29T16:01:14;13.90;99.90
8475;DHT22;4274;52.012;8.448;2024-03-29T16:03:40;13.90;99.90
8475;DHT22;4274;52.012;8.448;2024-03-29T16:06:06;13.80;99.90
8475;DHT22;4274;52.012;8.448;2024-03-29T16:08:32;13.80;99.90